Pachena No 1 — VD2970 — position and weather

sailwx.info

Track history (hours):
 
Tides and Currents Weather Stations Pressure Air Temp Water Temp Dewpoint Dewpoint Depression Visibility Wind Speed Wind Dir Waves Ship Positions

Pachena No 1

Last reported at 2017-Oct-20 02:20 UTC. Time now 2017-Oct-23 00:58 UTC.
Position N 54°19' W 131°08'.

Length 20 m.

Type: Fishing. MMSI: 316005100.

Date/timePositionNaut miles runAvg speedWind from/ knotsBaromVisibWave heightAir tempDewpointWater temp
2017-Oct-20 02:20N 54°19' W 131°08'3 7.4
2017-Oct-20 01:53N 54°19' W 131°02'3 8.0
2017-Oct-20 01:30N 54°19' W 130°57'4 8.0
2017-Oct-20 01:00N 54°19' W 130°50'4 7.4
2017-Oct-20 00:30N 54°18' W 130°44'4 8.2
2017-Oct-20 00:00N 54°16' W 130°38'5 9.3
2017-Oct-19 23:30N 54°14' W 130°30'5 9.6
2017-Oct-19 23:00N 54°14' W 130°22'4 7.5
2017-Oct-19 22:28N 54°18' W 130°22'3 6.5
2017-Oct-19 22:00N 54°20' W 130°18'1 1.0
2017-Oct-19 21:26N 54°20' W 130°17'0 0.0
2017-Oct-19 20:59N 54°20' W 130°17'0 0.0
2017-Oct-19 20:30N 54°20' W 130°17'1 1.8
2017-Oct-19 19:55N 54°19' W 130°19'0 0.1
2017-Oct-19 19:25N 54°19' W 130°19'0 0.0
2017-Oct-19 18:55N 54°19' W 130°19'0 0.0
2017-Oct-19 14:43N 54°19' W 130°19'0 0.0
2017-Oct-19 14:19N 54°19' W 130°19'0 0.0
2017-Oct-19 13:40N 54°19' W 130°19'0 0.0
2017-Oct-19 11:28N 54°19' W 130°19'0 0.0
2017-Oct-19 10:52N 54°19' W 130°19'0 0.0
2017-Oct-19 10:28N 54°19' W 130°19'0 0.0
2017-Oct-19 09:52N 54°19' W 130°19'0 0.0
2017-Oct-19 09:28N 54°19' W 130°19'0 0.0
2017-Oct-19 08:58N 54°19' W 130°19'0 0.0
2017-Oct-19 08:28N 54°19' W 130°19'0 0.0
2017-Oct-19 07:58N 54°19' W 130°19'0 0.0
2017-Oct-19 07:28N 54°19' W 130°19'0 0.0
2017-Oct-19 06:55N 54°19' W 130°19'0 0.0
2017-Oct-19 06:22N 54°19' W 130°19'0 0.0
2017-Oct-19 05:58N 54°19' W 130°19'0 0.0
2017-Oct-18 23:10N 54°19' W 130°19'0 0.0
2017-Oct-18 22:28N 54°19' W 130°19'0 0.0
2017-Oct-18 21:46N 54°19' W 130°19'0 0.0
2017-Oct-18 21:22N 54°19' W 130°19'0 0.0
2017-Oct-18 20:52N 54°19' W 130°19'0 0.0
2017-Oct-18 20:28N 54°19' W 130°19'0 0.0
2017-Oct-18 19:58N 54°19' W 130°19'0 0.0
2017-Oct-18 19:28N 54°19' W 130°19'0 0.0
2017-Oct-18 18:58N 54°19' W 130°19'0 0.0
2017-Oct-18 16:46N 54°19' W 130°19'0 0.0
2017-Oct-18 16:22N 54°19' W 130°19'0 0.0
2017-Oct-18 15:58N 54°19' W 130°19'0 0.0
2017-Oct-18 15:28N 54°19' W 130°19'0 0.0
2017-Oct-18 13:10N 54°19' W 130°19'0 0.0
2017-Oct-18 12:52N 54°19' W 130°19'0 0.0
2017-Oct-18 12:22N 54°19' W 130°19'0 0.0
2017-Oct-18 10:52N 54°19' W 130°19'0 0.0
2017-Oct-18 10:25N 54°19' W 130°19'0 0.0
2017-Oct-18 09:52N 54°19' W 130°19'0 0.0
2017-Oct-18 09:19N 54°19' W 130°19'0 0.0
2017-Oct-18 08:55N 54°19' W 130°19'0 0.0
2017-Oct-18 08:28N 54°19' W 130°19'0 0.0
2017-Oct-18 07:52N 54°19' W 130°19'0 0.0
2017-Oct-18 07:28N 54°19' W 130°19'0 0.0
2017-Oct-18 06:58N 54°19' W 130°19'0 0.0
2017-Oct-18 06:25N 54°19' W 130°19'0 0.0
2017-Oct-18 05:55N 54°19' W 130°19'0 0.0
2017-Oct-18 05:16N 54°19' W 130°19'0 0.0
2017-Oct-18 04:55N 54°19' W 130°19'0 0.0
2017-Oct-18 04:25N 54°19' W 130°19'0 0.0
2017-Oct-18 03:34N 54°19' W 130°19'0 0.1
2017-Oct-18 03:28N 54°19' W 130°19'0 0.0
2017-Oct-18 02:52N 54°19' W 130°19'0 0.0
2017-Oct-18 02:28N 54°19' W 130°19'0 0.0
2017-Oct-18 01:58N 54°19' W 130°19'0 0.0
2017-Oct-18 01:22N 54°19' W 130°19'0 0.0
2017-Oct-18 00:16N 54°19' W 130°19'0 0.0
2017-Oct-17 23:58N 54°19' W 130°19'0 0.0
2017-Oct-17 23:22N 54°19' W 130°19'0 0.0
2017-Oct-17 22:52N 54°19' W 130°19'0 0.0
2017-Oct-17 22:16N 54°19' W 130°19'0 0.0
2017-Oct-17 21:58N 54°19' W 130°19'0 0.0
2017-Oct-17 21:13N 54°19' W 130°19'0 0.0
2017-Oct-17 20:58N 54°19' W 130°19'0 0.0
2017-Oct-17 20:25N 54°19' W 130°19'0 0.0
2017-Oct-17 18:13N 54°19' W 130°19'0 0.0
2017-Oct-17 16:25N 54°19' W 130°19'  
Track history (hours):
 
Tides and Currents Weather Stations Pressure Air Temp Water Temp Dewpoint Dewpoint Depression Visibility Wind Speed Wind Dir Waves Ship Positions

Pachena No 1

Last reported at 2017-Oct-20 02:20 UTC. Time now 2017-Oct-23 00:58 UTC.
Position N 54°19' W 131°08'.

Length 20 m.

Type: Fishing. MMSI: 316005100.

Date/timePositionNaut miles runAvg speedWind from/ knotsBaromVisibWave heightAir tempDewpointWater temp
2017-Oct-20 02:20N 54°19' W 131°08'3 7.4
2017-Oct-20 01:53N 54°19' W 131°02'3 8.0
2017-Oct-20 01:30N 54°19' W 130°57'4 8.0
2017-Oct-20 01:00N 54°19' W 130°50'4 7.4
2017-Oct-20 00:30N 54°18' W 130°44'4 8.2
2017-Oct-20 00:00N 54°16' W 130°38'5 9.3
2017-Oct-19 23:30N 54°14' W 130°30'5 9.6
2017-Oct-19 23:00N 54°14' W 130°22'4 7.5
2017-Oct-19 22:28N 54°18' W 130°22'3 6.5
2017-Oct-19 22:00N 54°20' W 130°18'1 1.0
2017-Oct-19 21:26N 54°20' W 130°17'0 0.0
2017-Oct-19 20:59N 54°20' W 130°17'0 0.0
2017-Oct-19 20:30N 54°20' W 130°17'1 1.8
2017-Oct-19 19:55N 54°19' W 130°19'0 0.1
2017-Oct-19 19:25N 54°19' W 130°19'0 0.0
2017-Oct-19 18:55N 54°19' W 130°19'0 0.0
2017-Oct-19 14:43N 54°19' W 130°19'0 0.0
2017-Oct-19 14:19N 54°19' W 130°19'0 0.0
2017-Oct-19 13:40N 54°19' W 130°19'0 0.0
2017-Oct-19 11:28N 54°19' W 130°19'0 0.0
2017-Oct-19 10:52N 54°19' W 130°19'0 0.0
2017-Oct-19 10:28N 54°19' W 130°19'0 0.0
2017-Oct-19 09:52N 54°19' W 130°19'0 0.0
2017-Oct-19 09:28N 54°19' W 130°19'0 0.0
2017-Oct-19 08:58N 54°19' W 130°19'0 0.0
2017-Oct-19 08:28N 54°19' W 130°19'0 0.0
2017-Oct-19 07:58N 54°19' W 130°19'0 0.0
2017-Oct-19 07:28N 54°19' W 130°19'0 0.0
2017-Oct-19 06:55N 54°19' W 130°19'0 0.0
2017-Oct-19 06:22N 54°19' W 130°19'0 0.0
2017-Oct-19 05:58N 54°19' W 130°19'0 0.0
2017-Oct-18 23:10N 54°19' W 130°19'0 0.0
2017-Oct-18 22:28N 54°19' W 130°19'0 0.0
2017-Oct-18 21:46N 54°19' W 130°19'0 0.0
2017-Oct-18 21:22N 54°19' W 130°19'0 0.0
2017-Oct-18 20:52N 54°19' W 130°19'0 0.0
2017-Oct-18 20:28N 54°19' W 130°19'0 0.0
2017-Oct-18 19:58N 54°19' W 130°19'0 0.0
2017-Oct-18 19:28N 54°19' W 130°19'0 0.0
2017-Oct-18 18:58N 54°19' W 130°19'0 0.0
2017-Oct-18 16:46N 54°19' W 130°19'0 0.0
2017-Oct-18 16:22N 54°19' W 130°19'0 0.0
2017-Oct-18 15:58N 54°19' W 130°19'0 0.0
2017-Oct-18 15:28N 54°19' W 130°19'0 0.0
2017-Oct-18 13:10N 54°19' W 130°19'0 0.0
2017-Oct-18 12:52N 54°19' W 130°19'0 0.0
2017-Oct-18 12:22N 54°19' W 130°19'0 0.0
2017-Oct-18 10:52N 54°19' W 130°19'0 0.0
2017-Oct-18 10:25N 54°19' W 130°19'0 0.0
2017-Oct-18 09:52N 54°19' W 130°19'0 0.0
2017-Oct-18 09:19N 54°19' W 130°19'0 0.0
2017-Oct-18 08:55N 54°19' W 130°19'0 0.0
2017-Oct-18 08:28N 54°19' W 130°19'0 0.0
2017-Oct-18 07:52N 54°19' W 130°19'0 0.0
2017-Oct-18 07:28N 54°19' W 130°19'0 0.0
2017-Oct-18 06:58N 54°19' W 130°19'0 0.0
2017-Oct-18 06:25N 54°19' W 130°19'0 0.0
2017-Oct-18 05:55N 54°19' W 130°19'0 0.0
2017-Oct-18 05:16N 54°19' W 130°19'0 0.0
2017-Oct-18 04:55N 54°19' W 130°19'0 0.0
2017-Oct-18 04:25N 54°19' W 130°19'0 0.0
2017-Oct-18 03:34N 54°19' W 130°19'0 0.1
2017-Oct-18 03:28N 54°19' W 130°19'0 0.0
2017-Oct-18 02:52N 54°19' W 130°19'0 0.0
2017-Oct-18 02:28N 54°19' W 130°19'0 0.0
2017-Oct-18 01:58N 54°19' W 130°19'0 0.0
2017-Oct-18 01:22N 54°19' W 130°19'0 0.0
2017-Oct-18 00:16N 54°19' W 130°19'0 0.0
2017-Oct-17 23:58N 54°19' W 130°19'0 0.0
2017-Oct-17 23:22N 54°19' W 130°19'0 0.0
2017-Oct-17 22:52N 54°19' W 130°19'0 0.0
2017-Oct-17 22:16N 54°19' W 130°19'0 0.0
2017-Oct-17 21:58N 54°19' W 130°19'0 0.0
2017-Oct-17 21:13N 54°19' W 130°19'0 0.0
2017-Oct-17 20:58N 54°19' W 130°19'0 0.0
2017-Oct-17 20:25N 54°19' W 130°19'0 0.0
2017-Oct-17 18:13N 54°19' W 130°19'0 0.0
2017-Oct-17 16:25N 54°19' W 130°19'  

Dump ship's entire track history